Time;durP1;ratioP1;P1;durP2;ratioP2;P2;SDS_P1;SDS_P2;PMS_P1;PMS_P2;Temp;Humidity;BMP_temperature;BMP_pressure;BME280_temperature;BME280_humidity;BME280_pressure;Samples;Min_cycle;Max_cycle;Signal;HPM_P1;HPM_P2
2022/11/25 00:00:24;;;;;;;11.20;7.63;;;18.50;73.10;;;18.89;40.47;98639.72;5027829;28;20045;-74
2022/11/25 00:03:10;;;;;;;11.50;7.53;;;18.50;73.00;;;18.86;39.91;98652.97;5026378;28;20072;-73
2022/11/25 00:05:37;;;;;;;6.80;5.85;;;18.50;72.90;;;18.87;40.48;98645.53;5027224;28;20072;-74
2022/11/25 00:08:03;;;;;;;9.52;7.50;;;18.50;73.10;;;18.87;40.51;98642.78;5027259;28;20085;-73
2022/11/25 00:10:29;;;;;;;8.90;6.97;;;18.50;73.20;;;18.86;40.65;98646.69;5027249;28;20033;-74
2022/11/25 00:12:55;;;;;;;11.63;5.95;;;18.50;73.30;;;18.86;40.50;98652.97;5016983;28;20509;-74
2022/11/25 00:15:24;;;;;;;9.13;6.45;;;18.50;73.10;;;18.85;40.15;98648.63;5012989;28;20052;-74
2022/11/25 00:17:51;;;;;;;8.73;6.22;;;18.50;73.00;;;18.84;40.57;98646.22;5028937;28;20049;-74
2022/11/25 00:20:20;;;;;;;9.43;7.40;;;18.50;72.90;;;18.83;40.57;98650.91;5025119;28;20049;-74
2022/11/25 00:22:46;;;;;;;9.18;6.57;;;18.50;73.10;;;18.83;40.47;98650.91;5028263;28;20050;-74
2022/11/25 00:25:12;;;;;;;9.23;7.28;;;18.40;73.10;;;18.83;40.59;98650.91;5029919;28;20421;-74
2022/11/25 00:27:38;;;;;;;13.02;7.72;;;18.40;73.40;;;18.83;40.52;98648.16;5027210;28;20037;-74
2022/11/25 00:30:05;;;;;;;10.68;7.15;;;18.40;73.10;;;18.87;40.27;98646.34;5028682;28;20052;-74
2022/11/25 00:32:31;;;;;;;8.80;7.07;;;18.50;73.10;;;18.88;40.31;98647.16;5029222;28;20057;-74
2022/11/25 00:34:57;;;;;;;10.23;7.25;;;18.50;72.90;;;18.85;40.31;98647.81;5029322;28;20047;-73
2022/11/25 00:37:23;;;;;;;9.35;7.55;;;18.40;73.00;;;18.77;40.73;98649.47;5027403;28;20038;-73
2022/11/25 00:39:50;;;;;;;8.57;6.90;;;18.40;73.20;;;18.82;40.75;98651.22;5011733;28;20045;-73
2022/11/25 00:45:01;;;;;;;11.05;7.50;;;18.40;73.50;;;18.82;40.57;98653.97;5027848;28;20049;-73
2022/11/25 00:47:28;;;;;;;12.88;8.07;;;18.40;73.00;;;18.76;40.55;98653.34;5026215;28;20033;-73
2022/11/25 00:49:54;;;;;;;10.38;7.70;;;18.40;73.00;;;18.79;40.40;98660.94;5026273;28;20046;-73
2022/11/25 00:52:23;;;;;;;10.15;7.90;;;18.40;73.00;;;18.82;40.50;98665.75;5028865;28;20087;-73
2022/11/25 00:54:50;;;;;;;14.90;7.60;;;18.40;73.70;;;18.82;40.67;98671.25;5002665;28;20068;-73
2022/11/25 00:57:18;;;;;;;11.40;6.90;;;18.40;73.10;;;18.81;40.80;98672.41;5027292;28;20045;-73
2022/11/25 00:59:44;;;;;;;10.73;8.38;;;18.40;73.30;;;18.83;40.53;98672.09;5013374;28;20080;-73
2022/11/25 01:02:11;;;;;;;12.82;8.48;;;18.40;73.20;;;18.82;40.35;98675.97;5025783;28;20079;-73
2022/11/25 01:04:38;;;;;;;10.10;8.15;;;18.40;73.10;;;18.79;40.35;98669.19;5026819;28;20409;-73
2022/11/25 01:07:04;;;;;;;12.07;8.20;;;18.40;73.00;;;18.82;40.26;98667.72;5010652;28;20038;-73
2022/11/25 01:09:30;;;;;;;10.15;6.72;;;18.40;73.00;;;18.78;40.50;98667.59;4995598;28;20120;-75
2022/11/25 01:11:57;;;;;;;12.90;8.25;;;18.40;73.10;;;18.77;40.74;98667.91;5021418;28;20046;-74
2022/11/25 01:14:23;;;;;;;10.52;6.90;;;18.40;73.30;;;18.79;40.76;98666.44;5011759;28;20091;-74
2022/11/25 01:16:49;;;;;;;11.98;8.10;;;18.30;73.40;;;18.77;40.67;98663.19;4996909;28;20107;-74
2022/11/25 01:19:16;;;;;;;10.38;7.85;;;18.30;73.20;;;18.79;40.41;98674.69;5042249;28;20029;-74
2022/11/25 01:21:42;;;;;;;11.65;8.70;;;18.40;73.10;;;18.80;40.28;98673.56;5010372;28;20522;-74
2022/11/25 01:24:09;;;;;;;12.15;8.57;;;18.40;73.00;;;18.76;40.50;98669.03;5027263;28;20091;-74
2022/11/25 01:26:35;;;;;;;12.20;8.45;;;18.40;73.00;;;18.71;40.64;98674.69;5028092;28;20369;-74
2022/11/25 01:29:04;;;;;;;10.88;7.78;;;18.40;73.30;;;18.73;40.60;98675.97;5029819;28;20041;-76
2022/11/25 01:31:35;;;;;;;10.88;7.30;;;18.40;73.20;;;18.78;40.52;98667.59;5022000;28;20050;-74
2022/11/25 01:34:06;;;;;;;13.65;8.50;;;18.30;73.20;;;18.72;40.50;98671.59;4995497;28;20050;-74
2022/11/25 01:36:32;;;;;;;;;;;18.30;73.20;;;18.74;40.48;98668.53;4996672;28;20048;-74
2022/11/25 01:39:00;;;;;;;12.45;8.90;;;18.30;73.10;;;18.77;40.41;98665.94;4999589;28;19920;-74
2022/11/25 01:41:29;;;;;;;12.70;8.15;;;18.30;72.90;;;18.73;40.43;98661.44;5027431;28;20124;-74
2022/11/25 01:44:08;;;;;;;12.75;8.98;;;18.30;73.10;;;18.71;40.51;98661.75;5009505;28;20086;-74
2022/11/25 01:46:59;;;;;;;9.30;7.28;;;18.40;73.30;;;18.69;40.80;98655.78;5027331;28;20042;-74
2022/11/25 01:50:01;;;;;;;10.70;7.85;;;18.30;73.30;;;18.74;40.50;98655.59;5028663;28;20045;-74
2022/11/25 01:52:32;;;;;;;12.57;8.13;;;18.30;73.00;;;18.72;40.40;98654.31;5030702;28;20034;-74
2022/11/25 01:55:04;;;;;;;12.98;8.48;;;18.30;72.90;;;18.74;40.52;98654.81;5011319;28;20160;-74
2022/11/25 01:57:45;;;;;;;11.40;8.05;;;18.30;73.00;;;18.75;40.50;98653.66;5027577;28;20048;-74
2022/11/25 02:00:12;;;;;;;15.37;9.13;;;18.30;73.10;;;18.70;40.77;98649.16;5023537;28;20037;-74
2022/11/25 02:02:38;;;;;;;13.20;8.48;;;18.30;73.30;;;18.71;40.72;98655.47;5023059;28;20041;-74
2022/11/25 02:05:09;;;;;;;10.93;8.38;;;18.30;73.40;;;18.72;40.49;98652.38;5028156;28;20555;-74
2022/11/25 02:07:38;;;;;;;13.60;8.85;;;18.30;73.30;;;18.69;40.41;98655.78;5013397;28;20041;-74
2022/11/25 02:10:13;;;;;;;13.02;8.48;;;18.20;73.20;;;18.70;40.49;98653.84;5008696;28;20064;-74
2022/11/25 02:12:40;;;;;;;13.30;10.13;;;18.30;73.10;;;18.71;40.66;98658.22;5023113;28;20583;-74
2022/11/25 02:15:07;;;;;;;13.52;8.88;;;18.20;72.90;;;18.65;40.57;98660.34;5010965;28;20116;-74
2022/11/25 02:17:33;;;;;;;12.73;8.95;;;18.20;73.30;;;18.66;40.74;98657.25;5026583;28;20049;-74
2022/11/25 02:20:11;;;;;;;12.80;8.20;;;18.30;73.30;;;18.67;40.64;98674.53;5032710;28;20045;-74
2022/11/25 02:22:51;;;;;;;14.32;9.35;;;18.20;73.40;;;18.66;40.36;98668.25;5032576;28;20033;-74
2022/11/25 02:25:32;;;;;;;13.30;9.40;;;18.20;73.20;;;18.69;40.41;98674.22;5034775;28;20103;-74
2022/11/25 02:28:29;;;;;;;12.15;8.68;;;18.20;73.00;;;18.69;40.41;98672.28;5018948;28;20045;-74
2022/11/25 02:30:55;;;;;;;14.73;9.20;;;18.20;72.90;;;18.70;40.59;98668.41;5018602;28;20482;-74
2022/11/25 02:33:21;;;;;;;14.02;10.13;;;18.20;73.20;;;18.68;40.61;98669.88;5015835;28;20037;-74
2022/11/25 02:35:56;;;;;;;12.25;8.32;;;18.20;73.40;;;18.66;40.79;98670.19;5019828;28;20508;-74
2022/11/25 02:38:43;;;;;;;12.88;9.18;;;18.20;73.50;;;18.66;40.38;98675.69;5032405;28;20047;-74
2022/11/25 02:41:17;;;;;;;14.27;10.23;;;18.20;73.30;;;18.62;40.58;98674.72;5032946;28;20080;-74
2022/11/25 02:43:43;;;;;;;16.08;9.90;;;18.20;73.20;;;18.64;40.56;98672.44;5017767;28;20048;-74
2022/11/25 02:46:15;;;;;;;15.25;9.00;;;18.20;73.20;;;18.64;40.61;98662.25;5016033;28;20563;-74
2022/11/25 02:48:41;;;;;;;;;;;18.20;73.20;;;18.63;40.83;98668.09;5030596;28;20828;-74
2022/11/25 02:51:09;;;;;;;13.10;9.05;;;18.20;73.40;;;18.62;40.82;98667.31;5036859;28;19921;-74
2022/11/25 02:53:35;;;;;;;14.43;9.85;;;18.20;73.50;;;18.61;40.56;98670.38;5030619;28;20046;-74
2022/11/25 02:56:01;;;;;;;16.02;9.88;;;18.10;73.30;;;18.59;40.67;98670.69;5030957;28;20859;-74
2022/11/25 02:58:27;;;;;;;13.27;9.45;;;18.10;73.40;;;18.63;40.47;98674.41;5034132;28;20041;-74
2022/11/25 03:00:54;;;;;;;15.32;8.63;;;18.10;73.30;;;18.59;40.56;98667.94;5019628;28;20064;-74
2022/11/25 03:03:20;;;;;;;15.52;10.07;;;18.10;73.10;;;18.57;40.72;98670.25;5021307;28;20033;-74
2022/11/25 03:05:46;;;;;;;12.10;9.00;;;18.10;73.30;;;18.61;40.69;98670.38;5025917;28;20045;-74
2022/11/25 03:08:12;;;;;;;12.60;9.43;;;18.10;73.30;;;18.57;40.79;98666.66;5016050;28;20072;-74
2022/11/25 03:10:38;;;;;;;13.38;9.13;;;18.10;73.50;;;18.59;40.44;98678.13;5016424;28;20444;-74
2022/11/25 03:13:05;;;;;;;14.15;9.73;;;18.10;73.20;;;18.60;40.44;98679.75;5016976;28;20099;-74
2022/11/25 03:15:33;;;;;;;13.75;9.63;;;18.10;73.20;;;18.60;40.50;98685.25;5016099;28;20037;-74
2022/11/25 03:17:59;;;;;;;15.07;9.43;;;18.10;72.90;;;18.58;40.45;98676.53;5018127;28;20368;-74
2022/11/25 03:20:25;;;;;;;13.98;9.95;;;18.10;73.10;;;18.62;40.56;98680.22;4999058;28;20690;-74
2022/11/25 03:22:51;;;;;;;16.23;10.20;;;18.10;73.50;;;18.62;40.67;98672.81;5020320;28;20041;-74
2022/11/25 03:25:17;;;;;;;13.10;9.73;;;18.10;73.60;;;18.59;40.60;98678.94;5029416;28;20037;-74
2022/11/25 03:27:43;;;;;;;13.93;9.80;;;18.20;73.30;;;18.64;40.60;98684.25;5032163;28;21014;-74
2022/11/25 03:30:30;;;;;;;15.00;9.75;;;18.10;73.20;;;18.62;40.45;98688.47;5010944;28;20042;-74
2022/11/25 03:32:56;;;;;;;15.20;9.95;;;18.20;73.10;;;18.64;40.40;98688.94;5015982;28;20484;-74
2022/11/25 03:35:22;;;;;;;15.75;10.77;;;18.20;73.00;;;18.68;40.50;98684.41;5029513;28;20435;-74
2022/11/25 03:37:48;;;;;;;12.60;10.32;;;18.20;73.30;;;18.62;40.54;98688.47;5030671;28;20061;-74
2022/11/25 03:40:15;;;;;;;14.38;9.23;;;18.20;73.20;;;18.67;40.58;98696.50;4998826;28;20095;-74
2022/11/25 03:42:41;;;;;;;14.02;10.38;;;18.20;73.30;;;18.69;40.48;98693.44;5030574;28;20447;-74
2022/11/25 03:45:09;;;;;;;15.23;10.57;;;18.20;73.10;;;18.69;40.60;98694.25;5030267;28;20037;-74
2022/11/25 03:47:35;;;;;;;15.40;9.70;;;18.20;73.20;;;18.71;40.24;98694.72;5032802;28;21646;-74
2022/11/25 03:50:02;;;;;;;16.20;10.55;;;18.20;73.10;;;18.72;40.43;98701.81;5015147;28;20037;-74
2022/11/25 03:52:28;;;;;;;14.07;9.88;;;18.20;73.20;;;18.76;40.36;98699.28;5015351;28;20045;-74
2022/11/25 03:54:54;;;;;;;22.20;12.65;;;18.10;73.20;;;18.78;40.08;98694.25;5014457;28;20048;-74
2022/11/25 03:57:20;;;;;;;14.85;10.73;;;18.10;73.20;;;18.79;40.09;98699.41;5013173;28;21604;-74
2022/11/25 03:59:47;;;;;;;18.52;10.80;;;18.10;73.10;;;18.81;40.03;98702.63;5029373;28;20052;-74
2022/11/25 04:02:13;;;;;;;15.60;11.52;;;18.00;73.00;;;18.82;40.17;98706.19;5029342;28;20033;-74
2022/11/25 04:04:39;;;;;;;16.33;11.77;;;18.10;73.20;;;18.86;40.02;98699.69;5011927;28;20033;-74
2022/11/25 04:07:05;;;;;;;16.70;11.50;;;18.10;73.60;;;18.85;39.90;98698.09;5028119;28;20909;-74
2022/11/25 04:09:31;;;;;;;17.00;10.82;;;18.10;73.40;;;18.89;40.17;98694.69;5030163;28;20041;-74
2022/11/25 04:14:42;;;;;;;19.20;11.70;;;18.10;73.10;;;18.90;39.93;98699.84;5025146;28;20065;-74
2022/11/25 04:17:08;;;;;;;18.15;11.07;;;18.00;73.10;;;18.91;39.67;98701.47;5012688;28;20055;-74
2022/11/25 04:19:34;;;;;;;19.13;11.73;;;18.10;73.00;;;18.97;39.83;98704.81;5030782;28;20044;-74
2022/11/25 04:22:01;;;;;;;16.27;10.73;;;18.10;73.20;;;19.04;39.69;98707.88;5026390;28;20554;-74
2022/11/25 04:24:27;;;;;;;17.55;10.93;;;18.10;73.40;;;19.04;39.86;98710.59;5029701;28;20090;-74
2022/11/25 04:26:53;;;;;;;16.77;11.50;;;18.20;73.30;;;19.03;39.86;98707.06;5012513;28;20049;-74
2022/11/25 04:29:20;;;;;;;18.17;11.88;;;18.20;73.10;;;19.07;39.60;98709.94;5013586;28;20037;-74
2022/11/25 04:31:46;;;;;;;18.60;12.43;;;18.20;73.00;;;19.08;39.45;98708.78;5026747;28;20076;-74
2022/11/25 04:34:12;;;;;;;22.25;13.57;;;18.20;72.80;;;19.08;39.51;98714.28;5013621;28;20042;-74
2022/11/25 04:36:38;;;;;;;19.05;12.27;;;18.20;72.80;;;19.13;39.62;98714.09;5029859;28;20041;-74
2022/11/25 04:39:04;;;;;;;16.45;11.93;;;18.20;73.00;;;19.16;39.49;98715.38;5031160;28;20033;-74
2022/11/25 04:41:30;;;;;;;18.27;11.80;;;18.20;73.20;;;19.20;39.33;98716.34;5013644;28;20853;-74
2022/11/25 04:43:59;;;;;;;20.52;12.38;;;18.20;73.00;;;19.20;39.31;98714.38;5026812;28;20044;-74
2022/11/25 04:46:33;;;;;;;19.60;12.65;;;18.20;72.90;;;19.16;39.45;98712.63;5015864;28;20115;-74
2022/11/25 04:48:59;;;;;;;16.27;11.02;;;18.20;72.70;;;19.21;39.23;98713.25;4997209;28;20045;-74
2022/11/25 04:51:25;;;;;;;19.50;12.25;;;18.30;72.90;;;19.22;39.27;98722.31;5013109;28;20503;-75
2022/11/25 04:53:52;;;;;;;16.77;11.57;;;18.30;72.90;;;19.26;39.33;98723.28;4996460;28;20132;-74
2022/11/25 04:56:18;;;;;;;21.40;13.20;;;18.30;72.90;;;19.28;39.36;98720.97;5027748;28;20047;-74
2022/11/25 05:01:29;;;;;;;18.70;12.43;;;18.30;72.90;;;19.28;39.14;98716.31;5014539;28;20760;-74
2022/11/25 05:03:55;;;;;;;16.70;12.05;;;18.30;72.90;;;19.27;39.14;98727.63;5023064;28;20046;-73
2022/11/25 05:06:21;;;;;;;22.30;13.23;;;18.30;72.80;;;19.27;39.16;98725.66;5011246;28;20053;-74
2022/11/25 05:08:48;;;;;;;19.25;13.23;;;18.30;72.70;;;19.33;39.40;98730.97;5028583;28;20552;-74
2022/11/25 05:11:14;;;;;;;18.30;12.65;;;18.30;72.90;;;19.34;39.32;98729.84;5008690;28;20057;-74
2022/11/25 05:13:41;;;;;;;17.70;11.75;;;18.30;73.00;;;19.36;39.39;98725.63;5010543;28;20037;-74
2022/11/25 05:16:07;;;;;;;24.20;13.65;;;18.40;73.00;;;19.32;39.33;98727.44;5013625;28;20053;-74
2022/11/25 05:18:33;;;;;;;22.92;12.82;;;18.30;72.80;;;19.36;39.15;98736.63;5028646;28;20404;-74
2022/11/25 05:21:03;;;;;;;18.92;12.63;;;18.30;72.70;;;19.37;39.19;98740.19;5011734;28;20046;-74
2022/11/25 05:23:30;;;;;;;21.50;14.13;;;18.40;72.70;;;19.35;39.14;98736.97;5012425;28;20052;-74
2022/11/25 05:26:02;;;;;;;18.58;12.23;;;18.40;72.70;;;19.38;39.14;98744.53;5012961;28;20041;-74
2022/11/25 05:28:29;;;;;;;20.25;12.82;;;18.40;73.00;;;19.36;39.11;98744.06;5009815;28;20038;-74
2022/11/25 05:30:55;;;;;;;20.50;12.90;;;18.40;73.00;;;19.39;39.20;98746.97;5015142;28;20136;-74
2022/11/25 05:33:22;;;;;;;22.67;14.07;;;18.40;73.00;;;19.40;39.03;98758.75;5044506;28;20049;-74
2022/11/25 05:36:14;;;;;;;19.02;12.57;;;18.40;72.80;;;19.36;39.19;98750.38;5023705;28;20049;-74
2022/11/25 05:38:40;;;;;;;22.05;14.20;;;18.40;72.60;;;19.38;39.12;98758.28;5012016;28;20099;-74
2022/11/25 05:41:06;;;;;;;19.05;12.60;;;18.40;72.50;;;19.40;39.31;98756.00;5028591;28;20124;-74
2022/11/25 05:43:34;;;;;;;20.35;13.27;;;18.40;72.80;;;19.40;39.14;98762.31;5026465;28;20038;-74
2022/11/25 05:46:06;;;;;;;23.25;13.40;;;18.40;73.00;;;19.38;39.19;98763.78;5026248;28;20091;-74
2022/11/25 05:48:32;;;;;;;18.17;12.23;;;18.40;72.90;;;19.40;39.01;98767.00;5027928;28;20087;-74
2022/11/25 05:51:00;;;;;;;24.85;14.75;;;18.50;72.60;;;19.38;39.15;98767.34;5028541;28;20045;-74
2022/11/25 05:53:27;;;;;;;21.10;14.07;;;18.40;72.60;;;19.37;39.15;98774.00;5027905;28;20037;-74
2022/11/25 05:56:05;;;;;;;19.98;12.98;;;18.50;72.60;;;19.40;39.16;98781.56;5024076;28;20038;-74
2022/11/25 05:58:31;;;;;;;18.92;12.65;;;18.50;72.60;;;19.35;39.03;98781.75;5024735;28;20124;-74
2022/11/25 06:00:57;;;;;;;22.33;12.48;;;18.50;72.40;;;19.40;39.01;98778.81;5007846;28;20802;-74
2022/11/25 06:03:25;;;;;;;18.45;12.50;;;18.50;72.40;;;19.41;39.11;98785.94;5020518;28;20405;-74
2022/11/25 06:05:51;;;;;;;19.85;12.93;;;18.60;72.70;;;19.45;39.48;98780.56;5012004;28;20049;-74
2022/11/25 06:08:17;;;;;;;17.27;12.70;;;18.50;72.80;;;19.42;39.28;98793.06;4997024;28;20048;-74
2022/11/25 06:10:43;;;;;;;22.15;13.50;;;18.50;72.80;;;19.42;38.82;98792.25;5012365;28;20046;-74
2022/11/25 06:13:10;;;;;;;20.20;13.73;;;18.50;72.60;;;19.42;39.10;98793.06;5024549;28;20046;-74
2022/11/25 06:15:41;;;;;;;21.02;13.23;;;18.50;72.60;;;19.43;39.36;98794.66;5010645;28;20084;-75
2022/11/25 06:18:08;;;;;;;21.15;13.70;;;18.50;72.70;;;19.43;39.20;98799.34;5027536;28;20081;-74
2022/11/25 06:20:34;;;;;;;20.50;13.68;;;18.50;72.80;;;19.44;39.20;98800.97;5009721;28;20053;-76
2022/11/25 06:23:00;;;;;;;19.00;12.50;;;18.50;73.00;;;19.45;39.41;98800.63;5028511;28;20041;-76
2022/11/25 06:25:26;;;;;;;19.33;13.05;;;18.50;73.10;;;19.41;39.41;98796.94;5010582;28;20477;-76
2022/11/25 06:27:52;;;;;;;20.98;14.40;;;18.50;72.90;;;19.42;39.28;98804.06;5023292;28;20722;-75
2022/11/25 06:30:19;;;;;;;16.65;12.23;;;18.50;72.70;;;19.41;39.31;98798.88;5023096;28;20045;-75
2022/11/25 06:32:45;;;;;;;22.85;13.45;;;18.60;72.70;;;19.42;39.22;98798.56;5010880;28;20041;-75
2022/11/25 06:35:11;;;;;;;23.60;13.30;;;18.50;72.60;;;19.40;39.55;98803.56;5005181;28;20060;-75
2022/11/25 06:37:38;;;;;;;23.95;13.43;;;18.50;72.80;;;19.44;39.33;98795.47;5000521;28;20034;-75
2022/11/25 06:40:05;;;;;;;22.98;13.55;;;18.50;73.10;;;19.42;39.36;98800.50;5020530;28;20046;-75
2022/11/25 06:42:31;;;;;;;20.63;13.13;;;18.60;73.20;;;19.42;39.52;98800.50;5008101;28;20086;-75
2022/11/25 06:44:57;;;;;;;18.10;13.07;;;18.60;72.90;;;19.41;39.56;98801.63;5022039;28;20421;-75
2022/11/25 06:47:24;;;;;;;22.67;12.75;;;18.60;72.90;;;19.41;39.53;98794.19;5005999;28;20049;-75
2022/11/25 06:49:50;;;;;;;19.42;12.93;;;18.60;72.80;;;19.38;39.71;98807.78;5025625;28;20056;-75
2022/11/25 06:52:16;;;;;;;21.50;13.93;;;18.60;72.80;;;19.42;39.50;98809.56;5019782;28;20120;-75
2022/11/25 06:54:44;;;;;;;18.88;11.60;;;18.60;73.20;;;19.46;39.70;98806.94;5020254;28;20045;-75
2022/11/25 06:57:11;;;;;;;17.70;12.55;;;18.50;73.20;;;19.43;39.26;98811.16;5001430;28;20053;-75
2022/11/25 06:59:37;;;;;;;18.00;13.05;;;18.60;73.20;;;19.43;39.66;98807.59;5018933;28;20409;-75
2022/11/25 07:02:04;;;;;;;20.70;13.90;;;18.70;73.00;;;19.41;39.37;98807.97;5021855;28;20500;-75
2022/11/25 07:04:32;;;;;;;22.10;13.55;;;18.70;72.90;;;19.40;39.57;98811.81;5024830;28;20073;-75
2022/11/25 07:06:59;;;;;;;19.25;13.57;;;18.70;72.80;;;19.45;39.71;98810.84;5007498;28;20579;-75
2022/11/25 07:09:26;;;;;;;19.85;13.95;;;18.60;72.90;;;19.42;39.52;98812.31;5023633;28;20395;-75
2022/11/25 07:11:52;;;;;;;19.23;13.90;;;18.60;73.20;;;19.42;39.76;98817.00;5009812;28;20041;-75
2022/11/25 07:14:18;;;;;;;17.48;12.10;;;18.60;73.20;;;19.42;39.93;98814.25;5025889;28;20052;-75
2022/11/25 07:16:45;;;;;;;20.67;14.35;;;18.70;73.10;;;19.41;39.74;98818.13;5029386;28;20037;-75
2022/11/25 07:19:12;;;;;;;20.90;12.68;;;18.70;73.00;;;19.41;39.73;98818.13;5007306;28;20049;-74
2022/11/25 07:21:38;;;;;;;19.67;12.82;;;18.70;73.00;;;19.42;39.59;98822.50;5008363;28;20042;-74
2022/11/25 07:24:06;;;;;;;18.77;13.25;;;18.70;72.90;;;19.42;39.75;98822.50;5009142;28;20107;-75
2022/11/25 07:26:34;;;;;;;22.02;15.50;;;18.60;73.20;;;19.42;39.69;98817.00;5010654;28;20040;-75
2022/11/25 07:29:04;;;;;;;19.98;13.25;;;18.60;73.40;;;19.38;40.08;98824.28;5008445;28;20128;-74
2022/11/25 07:31:36;;;;;;;18.60;12.10;;;18.60;73.20;;;19.38;39.97;98822.34;5004431;28;20053;-75
2022/11/25 07:34:06;;;;;;;19.08;13.43;;;18.60;73.20;;;19.37;39.80;98825.44;5020505;28;20065;-75
2022/11/25 07:36:33;;;;;;;21.52;13.95;;;18.60;73.10;;;19.39;39.65;98828.69;5027011;28;20038;-75
2022/11/25 07:39:01;;;;;;;22.15;14.38;;;18.70;73.00;;;19.37;39.69;98828.19;5026048;28;20052;-75
2022/11/25 07:41:28;;;;;;;19.77;12.70;;;18.70;72.90;;;19.40;39.78;98833.03;4993742;28;20071;-75
2022/11/25 07:43:56;;;;;;;18.85;12.90;;;18.70;73.20;;;19.38;39.76;98840.81;5002799;28;20103;-75
2022/11/25 07:46:34;;;;;;;22.90;13.73;;;18.70;73.20;;;19.37;39.74;98842.75;5009146;28;20108;-75
2022/11/25 07:49:03;;;;;;;22.98;14.57;;;18.70;73.00;;;19.36;39.89;98840.31;5028096;28;20132;-75
2022/11/25 07:51:34;;;;;;;18.20;12.55;;;18.70;73.00;;;19.33;39.79;98841.00;5009237;28;20099;-75
2022/11/25 07:54:01;;;;;;;22.92;12.75;;;18.70;72.90;;;19.35;39.64;98842.28;5010127;28;20137;-75
2022/11/25 07:56:30;;;;;;;21.30;14.27;;;18.70;73.00;;;19.37;39.65;98841.94;4997669;28;20045;-75
2022/11/25 07:58:56;;;;;;;23.15;13.93;;;18.70;73.20;;;19.37;40.12;98851.00;5011569;28;20079;-75
2022/11/25 08:01:23;;;;;;;19.55;13.65;;;18.70;73.30;;;19.38;39.79;98846.31;5027238;28;20045;-75
2022/11/25 08:03:49;;;;;;;21.63;14.43;;;18.70;73.20;;;19.35;39.70;98852.47;5024531;28;20414;-75
2022/11/25 08:06:27;;;;;;;18.77;13.60;;;18.70;72.90;;;19.34;39.57;98859.13;5028065;28;20172;-75
2022/11/25 08:08:54;;;;;;;20.58;13.50;;;18.70;72.80;;;19.33;39.71;98865.75;5011285;28;20041;-75
2022/11/25 08:11:26;;;;;;;20.13;13.63;;;18.70;72.80;;;19.33;39.88;98861.03;5025768;28;20071;-75
2022/11/25 08:13:52;;;;;;;22.88;14.18;;;18.70;73.70;;;19.32;40.01;98855.88;5007184;28;20048;-75
2022/11/25 08:16:21;;;;;;;23.48;14.93;;;18.70;73.00;;;19.34;39.89;98862.66;5008899;28;20618;-75
2022/11/25 08:18:47;;;;;;;20.00;14.00;;;18.70;73.30;;;19.33;39.80;98860.25;5009803;28;20644;-75
2022/11/25 08:21:14;;;;;;;20.17;13.85;;;18.70;73.00;;;19.32;39.92;98858.63;5009334;28;20056;-75
2022/11/25 08:23:42;;;;;;;21.42;14.20;;;18.70;73.00;;;19.29;39.94;98851.84;5007584;28;20041;-75
2022/11/25 08:26:14;;;;;;;21.90;13.88;;;18.70;72.90;;;19.29;39.80;98860.91;5004540;28;20050;-75
2022/11/25 08:28:40;;;;;;;18.83;12.75;;;18.70;72.80;;;19.33;39.73;98860.25;5009400;28;20038;-75
2022/11/25 08:31:10;;;;;;;17.13;12.15;;;18.70;73.00;;;19.33;39.87;98865.75;4993418;28;20073;-75
2022/11/25 08:33:36;;;;;;;16.70;12.70;;;18.70;73.30;;;19.29;39.82;98866.41;5005457;28;20493;-75
2022/11/25 08:36:04;;;;;;;20.58;14.75;;;18.70;73.00;;;19.30;39.98;98864.47;5009127;28;20333;-75
2022/11/25 08:38:30;;;;;;;22.30;15.40;;;18.70;72.90;;;19.28;39.89;98867.56;5007491;28;20532;-74
2022/11/25 08:40:56;;;;;;;19.67;12.85;;;18.70;72.90;;;19.30;39.88;98870.75;4990890;28;20546;-75
2022/11/25 08:43:22;;;;;;;22.10;14.15;;;18.70;72.80;;;19.30;39.80;98870.75;5005251;28;20095;-75
2022/11/25 08:45:49;;;;;;;21.58;14.43;;;18.70;72.60;;;19.31;39.95;98874.34;5025281;28;20076;-75
2022/11/25 08:48:16;;;;;;;25.05;14.75;;;18.70;73.00;;;19.33;39.83;98871.25;5011461;28;20033;-75
2022/11/25 08:50:54;;;;;;;23.08;14.50;;;18.70;73.00;;;19.29;39.94;98869.16;5008444;28;20413;-75
2022/11/25 08:53:21;;;;;;;24.27;14.98;;;18.70;73.00;;;19.29;39.69;98882.91;5022651;28;20427;-75
2022/11/25 08:55:48;;;;;;;19.75;13.95;;;18.70;72.90;;;19.27;39.86;98882.44;5009159;28;20048;-75
2022/11/25 08:58:14;;;;;;;24.27;15.35;;;18.70;72.80;;;19.29;39.82;98880.16;5005013;28;20540;-75
2022/11/25 09:00:41;;;;;;;22.67;14.70;;;18.70;72.80;;;19.30;39.67;98890.00;5019770;28;20056;-75
2022/11/25 09:03:07;;;;;;;23.45;14.45;;;18.70;72.70;;;19.30;39.72;98883.72;5008902;28;20045;-75
2022/11/25 09:05:37;;;;;;;21.20;13.77;;;18.70;72.90;;;19.32;39.84;98880.63;5009636;28;20419;-75
2022/11/25 09:08:04;;;;;;;20.42;14.23;;;18.70;73.00;;;19.30;39.89;98880.97;5040183;28;20064;-75
2022/11/25 09:10:30;;;;;;;19.85;14.05;;;18.70;72.80;;;19.29;39.95;98882.09;5008486;28;20048;-75
2022/11/25 09:12:56;;;;;;;23.80;14.68;;;18.70;72.60;;;19.33;39.68;98885.00;5008247;28;20095;-75
2022/11/25 09:15:22;;;;;;;23.27;15.07;;;18.80;72.70;;;19.29;39.82;98882.91;5024893;28;20041;-75
2022/11/25 09:17:49;;;;;;;20.42;13.77;;;18.80;72.50;;;19.32;39.80;98884.19;5008957;28;20401;-75
2022/11/25 09:20:16;;;;;;;21.52;13.77;;;18.80;72.70;;;19.30;39.80;98894.72;5006607;28;20110;-75
2022/11/25 09:22:42;;;;;;;23.80;15.85;;;18.80;72.80;;;19.30;39.78;98892.75;5007007;28;20596;-75
2022/11/25 09:25:08;;;;;;;23.42;15.23;;;18.80;72.90;;;19.29;39.83;98895.84;5008126;28;20091;-75
2022/11/25 09:27:35;;;;;;;23.40;15.52;;;18.80;72.70;;;19.32;39.81;98897.94;5028389;28;20102;-75
2022/11/25 09:30:01;;;;;;;26.88;16.48;;;18.70;72.50;;;19.32;39.89;98891.63;5010496;28;20049;-75
2022/11/25 09:32:27;;;;;;;24.65;14.40;;;18.70;72.50;;;19.31;39.86;98899.09;5025139;28;20416;-75
2022/11/25 09:34:53;;;;;;;21.20;12.90;;;18.70;72.60;;;19.34;39.83;98890.19;5013572;28;20046;-75
2022/11/25 09:37:19;;;;;;;22.60;15.27;;;18.80;72.80;;;19.35;39.79;98890.97;5024836;28;20493;-75
2022/11/25 09:39:46;;;;;;;24.48;15.70;;;18.70;72.80;;;19.36;39.72;98882.41;5006193;28;20099;-74
2022/11/25 09:48:52;;;;;;;22.15;15.10;;;18.80;72.60;;;19.33;39.81;98896.00;5027010;28;20033;-75
2022/11/25 09:51:33;;;;;;;22.38;14.18;;;18.80;72.40;;;19.37;39.54;98900.50;5025670;28;20558;-75
2022/11/25 09:54:05;;;;;;;21.30;13.88;;;18.80;73.30;;;19.37;39.89;98902.47;5025288;28;20266;-74
2022/11/25 09:57:13;;;;;;;23.85;14.73;;;18.80;72.70;;;19.37;39.69;98888.72;5021546;28;20048;-75
2022/11/25 10:00:05;;;;;;;23.15;14.68;;;18.80;72.50;;;19.30;39.87;98892.75;5021547;28;20037;-75
2022/11/25 10:02:40;;;;;;;22.02;14.02;;;18.80;72.40;;;19.36;39.65;98889.81;5009798;28;20041;-75
2022/11/25 10:05:15;;;;;;;25.30;15.30;;;18.90;72.30;;;19.37;39.78;98880.47;4991644;28;20497;-75
2022/11/25 10:07:48;;;;;;;25.77;15.10;;;18.80;72.30;;;19.40;39.81;98882.53;5023167;28;20088;-74
2022/11/25 10:10:30;;;;;;;20.88;14.88;;;18.80;72.50;;;19.40;39.76;98886.09;5013062;28;20044;-74
2022/11/25 10:12:57;;;;;;;24.17;14.73;;;18.80;72.60;;;19.41;39.68;98886.91;5023052;28;20037;-74
2022/11/25 10:15:31;;;;;;;19.15;14.77;;;18.90;72.60;;;19.40;39.55;98890.78;4991058;28;20037;-74
2022/11/25 10:18:02;;;;;;;20.67;14.02;;;18.90;72.50;;;19.39;39.51;98880.94;4992966;28;20555;-74
2022/11/25 10:20:36;;;;;;;23.33;14.05;;;18.90;72.30;;;19.42;39.45;98883.81;5022130;28;20473;-74
2022/11/25 10:23:04;;;;;;;28.42;16.27;;;18.90;72.20;;;19.39;39.76;98883.69;5008977;28;20073;-74
2022/11/25 10:25:41;;;;;;;20.90;14.35;;;18.90;72.30;;;19.42;39.78;98886.56;5007755;28;20041;-75
2022/11/25 10:28:21;;;;;;;19.58;13.98;;;18.90;72.40;;;19.42;39.60;98877.53;4992570;28;20037;-74